sensor_id;sensor_type;location;lat;lon;timestamp;pressure;altitude;pressure_sealevel;temperature;humidity
42887;BME280;29032;56.028;92.904;2023-05-15T00:01:54;98415.28;;;6.94;30.51
42887;BME280;29032;56.028;92.904;2023-05-15T00:06:57;98403.50;;;6.94;30.70
42887;BME280;29032;56.028;92.904;2023-05-15T00:17:38;98417.16;;;7.05;30.31
42887;BME280;29032;56.028;92.904;2023-05-15T00:22:41;98419.94;;;7.05;31.23
42887;BME280;29032;56.028;92.904;2023-05-15T00:28:02;98422.38;;;7.09;30.56
42887;BME280;29032;56.028;92.904;2023-05-15T00:33:22;98423.50;;;7.19;31.20
42887;BME280;29032;56.028;92.904;2023-05-15T00:44:04;98411.56;;;7.67;30.17
42887;BME280;29032;56.028;92.904;2023-05-15T00:54:28;98405.59;;;7.95;30.75
42887;BME280;29032;56.028;92.904;2023-05-15T00:59:49;98404.66;;;8.19;30.05
42887;BME280;29032;56.028;92.904;2023-05-15T01:05:11;98424.03;;;8.32;29.57
42887;BME280;29032;56.028;92.904;2023-05-15T01:15:35;98433.19;;;8.41;29.94
42887;BME280;29032;56.028;92.904;2023-05-15T01:20:47;98431.38;;;8.56;29.99
42887;BME280;29032;56.028;92.904;2023-05-15T01:26:18;98431.19;;;8.68;29.96
42887;BME280;29032;56.028;92.904;2023-05-15T01:36:47;98427.13;;;8.82;29.16
42887;BME280;29032;56.028;92.904;2023-05-15T01:42:29;98432.84;;;9.10;29.13
42887;BME280;29032;56.028;92.904;2023-05-15T01:47:38;98433.69;;;9.32;28.08
42887;BME280;29032;56.028;92.904;2023-05-15T01:52:43;98430.03;;;9.50;27.39
42887;BME280;29032;56.028;92.904;2023-05-15T01:57:49;98440.91;;;9.69;26.72
42887;BME280;29032;56.028;92.904;2023-05-15T02:02:55;98435.31;;;10.03;26.11
42887;BME280;29032;56.028;92.904;2023-05-15T02:07:58;98451.75;;;10.22;24.74
42887;BME280;29032;56.028;92.904;2023-05-15T02:18:41;98454.19;;;10.54;22.12
42887;BME280;29032;56.028;92.904;2023-05-15T02:23:43;98440.59;;;10.64;22.05
42887;BME280;29032;56.028;92.904;2023-05-15T02:28:49;98444.84;;;10.93;22.61
42887;BME280;29032;56.028;92.904;2023-05-15T02:34:02;98446.56;;;11.04;21.30
42887;BME280;29032;56.028;92.904;2023-05-15T02:39:28;98449.34;;;11.12;20.65
42887;BME280;29032;56.028;92.904;2023-05-15T02:44:31;98449.03;;;11.23;20.11
42887;BME280;29032;56.028;92.904;2023-05-15T02:49:36;98440.59;;;11.36;20.40
42887;BME280;29032;56.028;92.904;2023-05-15T02:54:39;98436.94;;;11.49;20.39
42887;BME280;29032;56.028;92.904;2023-05-15T02:59:41;98451.03;;;11.58;20.01
42887;BME280;29032;56.028;92.904;2023-05-15T03:04:44;98450.31;;;11.81;20.00
42887;BME280;29032;56.028;92.904;2023-05-15T03:15:07;98447.78;;;12.06;20.47
42887;BME280;29032;56.028;92.904;2023-05-15T03:20:11;98449.66;;;12.26;21.32
42887;BME280;29032;56.028;92.904;2023-05-15T03:25:31;98448.53;;;12.44;21.12
42887;BME280;29032;56.028;92.904;2023-05-15T03:30:33;98451.16;;;12.35;20.53
42887;BME280;29032;56.028;92.904;2023-05-15T03:35:55;98458.91;;;12.44;20.79
42887;BME280;29032;56.028;92.904;2023-05-15T03:41:15;98444.63;;;12.63;20.71
42887;BME280;29032;56.028;92.904;2023-05-15T03:51:39;98443.28;;;12.79;20.37
42887;BME280;29032;56.028;92.904;2023-05-15T03:56:41;98455.50;;;12.91;21.11
42887;BME280;29032;56.028;92.904;2023-05-15T04:01:43;98446.22;;;12.96;22.03
42887;BME280;29032;56.028;92.904;2023-05-15T04:07:05;98457.31;;;13.12;21.63
42887;BME280;29032;56.028;92.904;2023-05-15T04:22:50;98450.50;;;13.45;21.10
42887;BME280;29032;56.028;92.904;2023-05-15T04:28:10;98445.13;;;13.80;21.14
42887;BME280;29032;56.028;92.904;2023-05-15T04:33:12;98461.25;;;13.89;21.44
42887;BME280;29032;56.028;92.904;2023-05-15T04:38:34;98444.56;;;14.06;21.76
42887;BME280;29032;56.028;92.904;2023-05-15T04:43:35;98450.56;;;14.03;21.07
42887;BME280;29032;56.028;92.904;2023-05-15T04:48:37;98439.84;;;13.92;20.98
42887;BME280;29032;56.028;92.904;2023-05-15T04:53:59;98455.19;;;14.00;21.18
42887;BME280;29032;56.028;92.904;2023-05-15T04:59:01;98461.72;;;14.03;21.49
42887;BME280;29032;56.028;92.904;2023-05-15T05:04:03;98467.81;;;14.09;21.32
42887;BME280;29032;56.028;92.904;2023-05-15T05:09:07;98451.47;;;14.30;21.25
42887;BME280;29032;56.028;92.904;2023-05-15T05:14:09;98466.66;;;14.37;21.07
42887;BME280;29032;56.028;92.904;2023-05-15T05:19:29;98450.09;;;14.56;21.67
42887;BME280;29032;56.028;92.904;2023-05-15T05:24:33;98443.34;;;14.67;21.21
42887;BME280;29032;56.028;92.904;2023-05-15T05:34:56;98454.09;;;14.71;21.15
42887;BME280;29032;56.028;92.904;2023-05-15T05:39:59;98455.91;;;14.76;21.75
42887;BME280;29032;56.028;92.904;2023-05-15T05:45:01;98464.31;;;14.93;21.67
42887;BME280;29032;56.028;92.904;2023-05-15T05:50:04;98449.00;;;15.29;21.13
42887;BME280;29032;56.028;92.904;2023-05-15T05:55:08;98455.44;;;15.22;21.32
42887;BME280;29032;56.028;92.904;2023-05-15T06:00:11;98457.09;;;15.07;21.88
42887;BME280;29032;56.028;92.904;2023-05-15T06:05:13;98445.47;;;15.11;21.09
42887;BME280;29032;56.028;92.904;2023-05-15T06:10:35;98455.38;;;15.39;21.25
42887;BME280;29032;56.028;92.904;2023-05-15T06:15:37;98448.81;;;15.44;20.77
42887;BME280;29032;56.028;92.904;2023-05-15T06:20:39;98464.78;;;15.78;22.29
42887;BME280;29032;56.028;92.904;2023-05-15T06:25:43;98470.78;;;15.74;20.93
42887;BME280;29032;56.028;92.904;2023-05-15T06:30:45;98461.63;;;15.47;20.81
42887;BME280;29032;56.028;92.904;2023-05-15T06:35:47;98472.66;;;15.45;20.91
42887;BME280;29032;56.028;92.904;2023-05-15T06:40:50;98468.34;;;15.61;21.42
42887;BME280;29032;56.028;92.904;2023-05-15T06:45:52;98461.19;;;15.95;20.77
42887;BME280;29032;56.028;92.904;2023-05-15T06:56:16;98479.44;;;15.96;20.76
42887;BME280;29032;56.028;92.904;2023-05-15T07:01:18;98491.63;;;15.91;20.93
42887;BME280;29032;56.028;92.904;2023-05-15T07:06:42;98499.41;;;15.83;21.04
42887;BME280;29032;56.028;92.904;2023-05-15T07:11:45;98489.09;;;15.41;21.39
42887;BME280;29032;56.028;92.904;2023-05-15T07:17:24;98488.78;;;15.37;21.64
42887;BME280;29032;56.028;92.904;2023-05-15T07:22:45;98490.75;;;15.27;22.10
42887;BME280;29032;56.028;92.904;2023-05-15T07:33:11;98505.81;;;15.14;22.68
42887;BME280;29032;56.028;92.904;2023-05-15T07:38:37;98514.75;;;15.12;22.67
42887;BME280;29032;56.028;92.904;2023-05-15T07:43:41;98522.16;;;15.17;22.63
42887;BME280;29032;56.028;92.904;2023-05-15T07:48:43;98524.22;;;15.17;22.67
42887;BME280;29032;56.028;92.904;2023-05-15T07:59:06;98539.91;;;14.95;23.51
42887;BME280;29032;56.028;92.904;2023-05-15T08:04:08;98518.19;;;14.86;23.46
42887;BME280;29032;56.028;92.904;2023-05-15T08:09:10;98525.50;;;14.81;23.77
42887;BME280;29032;56.028;92.904;2023-05-15T08:14:14;98528.06;;;14.87;24.00
42887;BME280;29032;56.028;92.904;2023-05-15T08:19:16;98533.97;;;14.91;23.81
42887;BME280;29032;56.028;92.904;2023-05-15T08:29:40;98539.84;;;14.78;23.50
42887;BME280;29032;56.028;92.904;2023-05-15T08:34:42;98539.63;;;14.58;23.41
42887;BME280;29032;56.028;92.904;2023-05-15T08:39:44;98552.09;;;14.57;23.66
42887;BME280;29032;56.028;92.904;2023-05-15T08:45:07;98552.63;;;14.63;24.04
42887;BME280;29032;56.028;92.904;2023-05-15T08:50:16;98550.06;;;14.58;23.86
42887;BME280;29032;56.028;92.904;2023-05-15T08:55:18;98563.50;;;14.77;23.39
42887;BME280;29032;56.028;92.904;2023-05-15T09:00:22;98566.22;;;14.67;23.50
42887;BME280;29032;56.028;92.904;2023-05-15T09:05:26;98560.72;;;14.77;23.80
42887;BME280;29032;56.028;92.904;2023-05-15T09:10:29;98563.22;;;14.90;23.62
42887;BME280;29032;56.028;92.904;2023-05-15T09:15:33;98575.41;;;15.19;23.34
42887;BME280;29032;56.028;92.904;2023-05-15T09:20:35;98565.88;;;15.40;22.81
42887;BME280;29032;56.028;92.904;2023-05-15T09:25:39;98572.97;;;15.58;22.72
42887;BME280;29032;56.028;92.904;2023-05-15T09:30:44;98566.41;;;15.29;22.97
42887;BME280;29032;56.028;92.904;2023-05-15T09:35:47;98576.06;;;15.28;22.88
42887;BME280;29032;56.028;92.904;2023-05-15T09:40:49;98578.22;;;15.19;22.89
42887;BME280;29032;56.028;92.904;2023-05-15T09:45:53;98594.66;;;15.33;23.34
42887;BME280;29032;56.028;92.904;2023-05-15T09:51:14;98571.91;;;15.36;23.38
42887;BME280;29032;56.028;92.904;2023-05-15T09:56:16;98575.94;;;15.43;23.29
42887;BME280;29032;56.028;92.904;2023-05-15T10:01:38;98577.25;;;15.59;23.15
42887;BME280;29032;56.028;92.904;2023-05-15T10:06:44;98586.94;;;15.58;22.93
42887;BME280;29032;56.028;92.904;2023-05-15T10:11:49;98581.66;;;15.62;22.86
42887;BME280;29032;56.028;92.904;2023-05-15T10:16:54;98582.84;;;15.59;22.40
42887;BME280;29032;56.028;92.904;2023-05-15T10:21:57;98584.16;;;15.58;22.87
42887;BME280;29032;56.028;92.904;2023-05-15T10:27:00;98576.41;;;15.66;22.68
42887;BME280;29032;56.028;92.904;2023-05-15T10:32:05;98568.34;;;15.88;22.73
42887;BME280;29032;56.028;92.904;2023-05-15T10:37:07;98584.09;;;16.10;22.44
42887;BME280;29032;56.028;92.904;2023-05-15T10:42:11;98576.78;;;15.97;22.19
42887;BME280;29032;56.028;92.904;2023-05-15T10:47:15;98580.03;;;15.77;22.29
42887;BME280;29032;56.028;92.904;2023-05-15T10:52:17;98579.06;;;15.64;22.23
42887;BME280;29032;56.028;92.904;2023-05-15T10:57:20;98579.69;;;15.55;22.50
42887;BME280;29032;56.028;92.904;2023-05-15T11:02:24;98588.91;;;15.48;22.48
42887;BME280;29032;56.028;92.904;2023-05-15T11:07:27;98593.69;;;15.38;22.62
42887;BME280;29032;56.028;92.904;2023-05-15T11:24:02;98600.91;;;15.24;22.84
42887;BME280;29032;56.028;92.904;2023-05-15T11:29:22;98601.97;;;15.11;22.92
42887;BME280;29032;56.028;92.904;2023-05-15T11:34:32;98603.91;;;15.01;23.04
42887;BME280;29032;56.028;92.904;2023-05-15T11:39:38;98603.66;;;15.06;23.33
42887;BME280;29032;56.028;92.904;2023-05-15T11:44:58;98602.97;;;15.23;22.72
42887;BME280;29032;56.028;92.904;2023-05-15T11:50:03;98606.16;;;15.19;23.12
42887;BME280;29032;56.028;92.904;2023-05-15T11:55:07;98599.44;;;15.23;22.92
42887;BME280;29032;56.028;92.904;2023-05-15T12:00:10;98607.00;;;15.30;23.08
42887;BME280;29032;56.028;92.904;2023-05-15T12:05:14;98605.44;;;15.36;23.12
42887;BME280;29032;56.028;92.904;2023-05-15T12:10:16;98609.97;;;15.32;23.32
42887;BME280;29032;56.028;92.904;2023-05-15T12:15:18;98614.22;;;15.33;23.48
42887;BME280;29032;56.028;92.904;2023-05-15T12:20:40;98624.75;;;15.42;23.68
42887;BME280;29032;56.028;92.904;2023-05-15T12:25:42;98629.53;;;15.32;24.24
42887;BME280;29032;56.028;92.904;2023-05-15T12:36:07;98632.41;;;15.41;23.86
42887;BME280;29032;56.028;92.904;2023-05-15T12:41:10;98646.13;;;15.30;24.26
42887;BME280;29032;56.028;92.904;2023-05-15T12:46:12;98644.66;;;15.29;23.98
42887;BME280;29032;56.028;92.904;2023-05-15T12:51:16;98652.13;;;15.26;24.31
42887;BME280;29032;56.028;92.904;2023-05-15T12:56:18;98653.50;;;15.17;24.23
42887;BME280;29032;56.028;92.904;2023-05-15T13:01:21;98660.94;;;14.98;24.52
42887;BME280;29032;56.028;92.904;2023-05-15T13:06:24;98647.28;;;14.77;24.29
42887;BME280;29032;56.028;92.904;2023-05-15T13:11:29;98670.31;;;14.85;24.79
42887;BME280;29032;56.028;92.904;2023-05-15T13:16:31;98681.38;;;14.75;24.92
42887;BME280;29032;56.028;92.904;2023-05-15T13:21:53;98675.53;;;14.88;24.87
42887;BME280;29032;56.028;92.904;2023-05-15T13:26:55;98690.72;;;14.70;24.98
42887;BME280;29032;56.028;92.904;2023-05-15T13:31:57;98691.69;;;14.57;25.52
42887;BME280;29032;56.028;92.904;2023-05-15T13:37:00;98690.56;;;14.60;25.50
42887;BME280;29032;56.028;92.904;2023-05-15T13:42:02;98695.44;;;14.52;25.34
42887;BME280;29032;56.028;92.904;2023-05-15T13:47:05;98699.56;;;14.51;25.35
42887;BME280;29032;56.028;92.904;2023-05-15T13:52:08;98715.78;;;14.45;25.83
42887;BME280;29032;56.028;92.904;2023-05-15T13:57:29;98723.63;;;14.39;25.79
42887;BME280;29032;56.028;92.904;2023-05-15T14:02:31;98714.53;;;14.31;25.94
42887;BME280;29032;56.028;92.904;2023-05-15T14:12:55;98743.94;;;14.32;26.59
42887;BME280;29032;56.028;92.904;2023-05-15T14:17:57;98744.25;;;14.36;26.43
42887;BME280;29032;56.028;92.904;2023-05-15T14:23:01;98748.75;;;14.39;26.47
42887;BME280;29032;56.028;92.904;2023-05-15T14:28:03;98745.78;;;14.37;26.66
42887;BME280;29032;56.028;92.904;2023-05-15T14:39:06;98739.06;;;14.40;26.43
42887;BME280;29032;56.028;92.904;2023-05-15T14:49:28;98758.47;;;14.23;27.23
42887;BME280;29032;56.028;92.904;2023-05-15T14:54:50;98762.56;;;14.14;26.99
42887;BME280;29032;56.028;92.904;2023-05-15T15:00:12;98770.78;;;14.04;27.58
42887;BME280;29032;56.028;92.904;2023-05-15T15:05:14;98777.50;;;14.01;28.03
42887;BME280;29032;56.028;92.904;2023-05-15T15:15:37;98793.88;;;13.90;27.46
42887;BME280;29032;56.028;92.904;2023-05-15T15:20:40;98799.06;;;13.78;27.24
42887;BME280;29032;56.028;92.904;2023-05-15T15:25:44;98810.25;;;13.63;27.35
42887;BME280;29032;56.028;92.904;2023-05-15T15:30:47;98813.16;;;13.42;28.45
42887;BME280;29032;56.028;92.904;2023-05-15T15:41:30;98828.72;;;13.22;27.45
42887;BME280;29032;56.028;92.904;2023-05-15T15:46:32;98835.19;;;13.09;27.37
42887;BME280;29032;56.028;92.904;2023-05-15T15:51:34;98846.16;;;13.07;25.33
42887;BME280;29032;56.028;92.904;2023-05-15T15:56:37;98845.41;;;13.07;24.89
42887;BME280;29032;56.028;92.904;2023-05-15T16:01:39;98852.06;;;12.96;24.57
42887;BME280;29032;56.028;92.904;2023-05-15T16:06:42;98858.72;;;12.93;24.33
42887;BME280;29032;56.028;92.904;2023-05-15T16:17:05;98870.13;;;12.66;24.39
42887;BME280;29032;56.028;92.904;2023-05-15T16:22:07;98875.16;;;12.68;25.16
42887;BME280;29032;56.028;92.904;2023-05-15T16:27:29;98881.06;;;12.64;25.89
42887;BME280;29032;56.028;92.904;2023-05-15T16:32:31;98866.69;;;12.53;25.88
42887;BME280;29032;56.028;92.904;2023-05-15T16:37:33;98864.69;;;12.53;25.61
42887;BME280;29032;56.028;92.904;2023-05-15T16:42:37;98867.53;;;12.68;25.56
42887;BME280;29032;56.028;92.904;2023-05-15T16:47:39;98877.94;;;12.68;24.47
42887;BME280;29032;56.028;92.904;2023-05-15T16:52:41;98876.06;;;12.63;25.71
42887;BME280;29032;56.028;92.904;2023-05-15T16:57:45;98880.22;;;12.77;25.81
42887;BME280;29032;56.028;92.904;2023-05-15T17:02:47;98886.16;;;12.81;25.66
42887;BME280;29032;56.028;92.904;2023-05-15T17:08:08;98886.00;;;12.87;24.71
42887;BME280;29032;56.028;92.904;2023-05-15T17:13:11;98888.81;;;12.94;24.73
42887;BME280;29032;56.028;92.904;2023-05-15T17:18:13;98886.56;;;12.85;24.30
42887;BME280;29032;56.028;92.904;2023-05-15T17:23:15;98883.19;;;12.79;24.06
42887;BME280;29032;56.028;92.904;2023-05-15T17:28:19;98888.94;;;12.81;25.25
42887;BME280;29032;56.028;92.904;2023-05-15T17:33:21;98885.88;;;12.64;26.50
42887;BME280;29032;56.028;92.904;2023-05-15T17:38:23;98888.59;;;12.49;26.58
42887;BME280;29032;56.028;92.904;2023-05-15T17:43:26;98883.34;;;12.45;25.69
42887;BME280;29032;56.028;92.904;2023-05-15T17:59:10;98891.16;;;12.18;27.10
42887;BME280;29032;56.028;92.904;2023-05-15T18:04:12;98891.38;;;12.20;26.09
42887;BME280;29032;56.028;92.904;2023-05-15T18:09:50;98896.94;;;12.20;26.85
42887;BME280;29032;56.028;92.904;2023-05-15T18:14:54;98890.53;;;12.12;26.59
42887;BME280;29032;56.028;92.904;2023-05-15T18:20:15;98890.81;;;12.01;26.64
42887;BME280;29032;56.028;92.904;2023-05-15T18:25:35;98892.78;;;11.92;26.87
42887;BME280;29032;56.028;92.904;2023-05-15T18:30:39;98897.84;;;12.02;28.61
42887;BME280;29032;56.028;92.904;2023-05-15T18:35:41;98888.63;;;12.07;26.69
42887;BME280;29032;56.028;92.904;2023-05-15T18:40:45;98904.28;;;12.17;26.47
42887;BME280;29032;56.028;92.904;2023-05-15T18:45:49;98895.00;;;12.15;27.31
42887;BME280;29032;56.028;92.904;2023-05-15T18:50:51;98909.09;;;12.17;28.15
42887;BME280;29032;56.028;92.904;2023-05-15T18:55:53;98900.19;;;12.11;28.68
42887;BME280;29032;56.028;92.904;2023-05-15T19:00:56;98908.84;;;12.07;28.85
42887;BME280;29032;56.028;92.904;2023-05-15T19:05:58;98912.72;;;12.04;29.69
42887;BME280;29032;56.028;92.904;2023-05-15T19:11:18;98907.63;;;12.16;28.31
42887;BME280;29032;56.028;92.904;2023-05-15T19:16:40;98912.63;;;11.97;29.92
42887;BME280;29032;56.028;92.904;2023-05-15T19:21:42;98905.94;;;11.92;30.13
42887;BME280;29032;56.028;92.904;2023-05-15T19:27:03;98907.91;;;12.05;29.02
42887;BME280;29032;56.028;92.904;2023-05-15T19:32:07;98915.78;;;11.93;30.75
42887;BME280;29032;56.028;92.904;2023-05-15T19:37:09;98910.34;;;11.87;29.77
42887;BME280;29032;56.028;92.904;2023-05-15T19:42:11;98909.66;;;11.74;30.04
42887;BME280;29032;56.028;92.904;2023-05-15T19:47:14;98920.16;;;11.68;30.53
42887;BME280;29032;56.028;92.904;2023-05-15T19:52:35;98903.47;;;11.47;30.43
42887;BME280;29032;56.028;92.904;2023-05-15T19:57:55;98930.13;;;11.63;30.08
42887;BME280;29032;56.028;92.904;2023-05-15T20:02:58;98919.94;;;11.45;30.65
42887;BME280;29032;56.028;92.904;2023-05-15T20:08:00;98912.59;;;11.34;30.89
42887;BME280;29032;56.028;92.904;2023-05-15T20:13:02;98908.00;;;11.36;30.84
42887;BME280;29032;56.028;92.904;2023-05-15T20:18:25;98915.66;;;11.44;30.92
42887;BME280;29032;56.028;92.904;2023-05-15T20:23:27;98909.94;;;11.28;31.23
42887;BME280;29032;56.028;92.904;2023-05-15T20:28:29;98906.25;;;11.13;31.34
42887;BME280;29032;56.028;92.904;2023-05-15T20:33:32;98915.44;;;11.07;31.55
42887;BME280;29032;56.028;92.904;2023-05-15T20:38:36;98914.72;;;10.94;31.47
42887;BME280;29032;56.028;92.904;2023-05-15T20:43:38;98917.72;;;10.82;31.92
42887;BME280;29032;56.028;92.904;2023-05-15T20:48:41;98912.78;;;10.75;32.11
42887;BME280;29032;56.028;92.904;2023-05-15T20:53:43;98914.91;;;10.69;31.96
42887;BME280;29032;56.028;92.904;2023-05-15T20:58:45;98920.78;;;10.66;32.15
42887;BME280;29032;56.028;92.904;2023-05-15T21:09:27;98915.03;;;10.50;32.83
42887;BME280;29032;56.028;92.904;2023-05-15T21:14:29;98915.66;;;10.43;33.09
42887;BME280;29032;56.028;92.904;2023-05-15T21:19:32;98914.28;;;10.50;32.68
42887;BME280;29032;56.028;92.904;2023-05-15T21:24:36;98919.72;;;10.55;32.63
42887;BME280;29032;56.028;92.904;2023-05-15T21:29:38;98915.13;;;10.45;32.89
42887;BME280;29032;56.028;92.904;2023-05-15T21:34:40;98907.66;;;10.40;32.71
42887;BME280;29032;56.028;92.904;2023-05-15T21:39:43;98911.16;;;10.40;33.25
42887;BME280;29032;56.028;92.904;2023-05-15T21:44:45;98916.59;;;10.33;33.23
42887;BME280;29032;56.028;92.904;2023-05-15T21:49:47;98916.16;;;10.15;33.26
42887;BME280;29032;56.028;92.904;2023-05-15T21:54:51;98915.50;;;10.09;33.67
42887;BME280;29032;56.028;92.904;2023-05-15T22:00:11;98898.97;;;10.04;32.89
42887;BME280;29032;56.028;92.904;2023-05-15T22:05:14;98900.84;;;9.82;33.81
42887;BME280;29032;56.028;92.904;2023-05-15T22:10:17;98895.28;;;9.82;34.17
42887;BME280;29032;56.028;92.904;2023-05-15T22:15:19;98888.03;;;9.79;33.97
42887;BME280;29032;56.028;92.904;2023-05-15T22:20:21;98880.38;;;9.85;34.61
42887;BME280;29032;56.028;92.904;2023-05-15T22:25:25;98889.47;;;9.99;33.85
42887;BME280;29032;56.028;92.904;2023-05-15T22:30:46;98887.22;;;9.97;33.69
42887;BME280;29032;56.028;92.904;2023-05-15T22:35:48;98882.44;;;9.98;33.80
42887;BME280;29032;56.028;92.904;2023-05-15T22:40:52;98880.28;;;9.91;33.76
42887;BME280;29032;56.028;92.904;2023-05-15T22:45:55;98885.91;;;9.85;33.60
42887;BME280;29032;56.028;92.904;2023-05-15T22:50:57;98874.06;;;9.85;33.33
42887;BME280;29032;56.028;92.904;2023-05-15T22:56:00;98875.28;;;9.89;33.58
42887;BME280;29032;56.028;92.904;2023-05-15T23:01:02;98867.03;;;9.84;33.38
42887;BME280;29032;56.028;92.904;2023-05-15T23:06:04;98872.78;;;9.72;33.97
42887;BME280;29032;56.028;92.904;2023-05-15T23:11:08;98883.41;;;9.68;34.32
42887;BME280;29032;56.028;92.904;2023-05-15T23:16:10;98874.69;;;9.64;34.08
42887;BME280;29032;56.028;92.904;2023-05-15T23:21:30;98872.66;;;9.78;33.96
42887;BME280;29032;56.028;92.904;2023-05-15T23:26:52;98869.41;;;9.80;33.20
42887;BME280;29032;56.028;92.904;2023-05-15T23:32:13;98876.00;;;9.90;33.33
42887;BME280;29032;56.028;92.904;2023-05-15T23:42:55;98871.53;;;9.87;34.02
42887;BME280;29032;56.028;92.904;2023-05-15T23:47:57;98871.31;;;9.85;33.85
42887;BME280;29032;56.028;92.904;2023-05-15T23:53:03;98875.81;;;9.88;33.77
42887;BME280;29032;56.028;92.904;2023-05-15T23:58:25;98872.94;;;9.93;33.66
